sensor_id;sensor_type;location;lat;lon;timestamp;pressure;altitude;pressure_sealevel;temperature;humidity
2785;BME280;57944;48.722;9.316;2023-02-14T00:01:28;99912.78;;;-1.87;100.00
2785;BME280;57944;48.722;9.316;2023-02-14T00:03:58;99917.78;;;-1.87;100.00
2785;BME280;57944;48.722;9.316;2023-02-14T00:06:31;99912.13;;;-1.91;100.00
2785;BME280;57944;48.722;9.316;2023-02-14T00:09:01;99901.63;;;-1.99;100.00
2785;BME280;57944;48.722;9.316;2023-02-14T00:11:32;99903.34;;;-1.99;100.00
2785;BME280;57944;48.722;9.316;2023-02-14T00:14:02;99906.22;;;-2.09;100.00
2785;BME280;57944;48.722;9.316;2023-02-14T00:16:45;99901.22;;;-2.09;100.00
2785;BME280;57944;48.722;9.316;2023-02-14T00:19:18;99906.81;;;-2.04;100.00
2785;BME280;57944;48.722;9.316;2023-02-14T00:21:51;99896.59;;;-1.97;100.00
2785;BME280;57944;48.722;9.316;2023-02-14T00:24:23;99909.13;;;-1.99;100.00
2785;BME280;57944;48.722;9.316;2023-02-14T00:26:54;99910.22;;;-2.05;100.00
2785;BME280;57944;48.722;9.316;2023-02-14T00:29:26;99904.84;;;-2.16;100.00
2785;BME280;57944;48.722;9.316;2023-02-14T00:31:57;99907.72;;;-2.25;100.00
2785;BME280;57944;48.722;9.316;2023-02-14T00:34:27;99909.72;;;-2.33;100.00
2785;BME280;57944;48.722;9.316;2023-02-14T00:37:02;99900.00;;;-2.39;100.00
2785;BME280;57944;48.722;9.316;2023-02-14T00:39:32;99907.53;;;-2.41;100.00
2785;BME280;57944;48.722;9.316;2023-02-14T00:42:05;99908.72;;;-2.50;100.00
2785;BME280;57944;48.722;9.316;2023-02-14T00:44:35;99902.13;;;-2.51;100.00
2785;BME280;57944;48.722;9.316;2023-02-14T00:47:05;99900.69;;;-2.36;100.00
2785;BME280;57944;48.722;9.316;2023-02-14T00:49:35;99904.84;;;-2.36;100.00
2785;BME280;57944;48.722;9.316;2023-02-14T00:52:08;99905.88;;;-2.20;100.00
2785;BME280;57944;48.722;9.316;2023-02-14T00:54:38;99905.16;;;-2.23;100.00
2785;BME280;57944;48.722;9.316;2023-02-14T00:57:08;99908.09;;;-2.34;100.00
2785;BME280;57944;48.722;9.316;2023-02-14T00:59:38;99913.91;;;-2.34;100.00
2785;BME280;57944;48.722;9.316;2023-02-14T01:02:08;99907.84;;;-2.28;100.00
2785;BME280;57944;48.722;9.316;2023-02-14T01:04:38;99908.22;;;-2.37;100.00
2785;BME280;57944;48.722;9.316;2023-02-14T01:07:11;99907.53;;;-2.41;100.00
2785;BME280;57944;48.722;9.316;2023-02-14T01:09:41;99910.22;;;-2.45;100.00
2785;BME280;57944;48.722;9.316;2023-02-14T01:12:11;99912.81;;;-2.49;100.00
2785;BME280;57944;48.722;9.316;2023-02-14T01:14:41;99908.97;;;-2.56;100.00
2785;BME280;57944;48.722;9.316;2023-02-14T01:17:11;99915.44;;;-2.52;100.00
2785;BME280;57944;48.722;9.316;2023-02-14T01:19:41;99914.69;;;-2.54;100.00
2785;BME280;57944;48.722;9.316;2023-02-14T01:22:14;99908.34;;;-2.61;100.00
2785;BME280;57944;48.722;9.316;2023-02-14T01:24:44;99907.56;;;-2.63;100.00
2785;BME280;57944;48.722;9.316;2023-02-14T01:27:14;99904.56;;;-2.71;100.00
2785;BME280;57944;48.722;9.316;2023-02-14T01:29:46;99900.34;;;-2.69;100.00
2785;BME280;57944;48.722;9.316;2023-02-14T01:32:18;99905.72;;;-2.58;100.00
2785;BME280;57944;48.722;9.316;2023-02-14T01:34:49;99905.06;;;-2.63;100.00
2785;BME280;57944;48.722;9.316;2023-02-14T01:37:22;99902.59;;;-2.63;100.00
2785;BME280;57944;48.722;9.316;2023-02-14T01:39:52;99900.88;;;-2.62;100.00
2785;BME280;57944;48.722;9.316;2023-02-14T01:42:22;99904.56;;;-2.71;100.00
2785;BME280;57944;48.722;9.316;2023-02-14T01:45:00;99897.44;;;-2.80;100.00
2785;BME280;57944;48.722;9.316;2023-02-14T01:47:36;99900.91;;;-2.84;100.00
2785;BME280;57944;48.722;9.316;2023-02-14T01:50:11;99895.38;;;-2.91;100.00
2785;BME280;57944;48.722;9.316;2023-02-14T01:52:49;99891.47;;;-2.98;100.00
2785;BME280;57944;48.722;9.316;2023-02-14T01:55:24;99889.22;;;-3.04;100.00
2785;BME280;57944;48.722;9.316;2023-02-14T01:58:02;99893.47;;;-3.06;100.00
2785;BME280;57944;48.722;9.316;2023-02-14T02:00:34;99893.47;;;-3.28;100.00
2785;BME280;57944;48.722;9.316;2023-02-14T02:03:20;99900.53;;;-3.40;100.00
2785;BME280;57944;48.722;9.316;2023-02-14T02:06:00;99897.25;;;-3.42;100.00
2785;BME280;57944;48.722;9.316;2023-02-14T02:08:40;99888.91;;;-3.41;100.00
2785;BME280;57944;48.722;9.316;2023-02-14T02:11:11;99889.63;;;-3.37;100.00
2785;BME280;57944;48.722;9.316;2023-02-14T02:13:41;99888.69;;;-3.34;100.00
2785;BME280;57944;48.722;9.316;2023-02-14T02:16:46;99888.06;;;-3.40;100.00
2785;BME280;57944;48.722;9.316;2023-02-14T02:20:17;99885.66;;;-3.43;100.00
2785;BME280;57944;48.722;9.316;2023-02-14T02:26:53;99870.66;;;-3.41;100.00
2785;BME280;57944;48.722;9.316;2023-02-14T02:39:25;99890.63;;;-3.65;100.00
2785;BME280;57944;48.722;9.316;2023-02-14T02:42:09;99887.72;;;-3.54;100.00
2785;BME280;57944;48.722;9.316;2023-02-14T02:44:56;99885.91;;;-3.27;100.00
2785;BME280;57944;48.722;9.316;2023-02-14T02:47:35;99889.81;;;-3.20;100.00
2785;BME280;57944;48.722;9.316;2023-02-14T02:50:21;99889.44;;;-3.32;100.00
2785;BME280;57944;48.722;9.316;2023-02-14T02:53:16;99889.44;;;-3.32;100.00
2785;BME280;57944;48.722;9.316;2023-02-14T02:55:57;99883.66;;;-3.33;100.00
2785;BME280;57944;48.722;9.316;2023-02-14T02:58:45;99880.78;;;-3.46;100.00
2785;BME280;57944;48.722;9.316;2023-02-14T03:01:22;99881.53;;;-3.44;100.00
2785;BME280;57944;48.722;9.316;2023-02-14T03:04:00;99881.81;;;-3.51;100.00
2785;BME280;57944;48.722;9.316;2023-02-14T03:06:44;99880.59;;;-3.40;100.00
2785;BME280;57944;48.722;9.316;2023-02-14T03:09:54;99883.94;;;-3.41;100.00
2785;BME280;57944;48.722;9.316;2023-02-14T03:16:31;99882.03;;;-3.57;100.00
2785;BME280;57944;48.722;9.316;2023-02-14T03:19:40;99887.91;;;-3.58;100.00
2785;BME280;57944;48.722;9.316;2023-02-14T03:22:42;99893.81;;;-3.61;100.00
2785;BME280;57944;48.722;9.316;2023-02-14T03:25:36;99889.84;;;-3.67;100.00
2785;BME280;57944;48.722;9.316;2023-02-14T03:28:17;99891.00;;;-3.75;100.00
2785;BME280;57944;48.722;9.316;2023-02-14T03:30:57;99886.97;;;-3.79;100.00
2785;BME280;57944;48.722;9.316;2023-02-14T03:33:37;99885.38;;;-3.80;100.00
2785;BME280;57944;48.722;9.316;2023-02-14T03:36:18;99892.06;;;-3.83;100.00
2785;BME280;57944;48.722;9.316;2023-02-14T03:38:55;99883.81;;;-4.08;100.00
2785;BME280;57944;48.722;9.316;2023-02-14T03:41:38;99881.75;;;-3.95;100.00
2785;BME280;57944;48.722;9.316;2023-02-14T03:44:16;99878.91;;;-3.86;100.00
2785;BME280;57944;48.722;9.316;2023-02-14T03:46:52;99880.00;;;-3.70;100.00
2785;BME280;57944;48.722;9.316;2023-02-14T03:49:29;99883.50;;;-3.52;100.00
2785;BME280;57944;48.722;9.316;2023-02-14T03:52:04;99880.16;;;-3.51;100.00
2785;BME280;57944;48.722;9.316;2023-02-14T03:54:36;99883.50;;;-3.28;100.00
2785;BME280;57944;48.722;9.316;2023-02-14T03:57:17;99884.94;;;-3.23;100.00
2785;BME280;57944;48.722;9.316;2023-02-14T03:59:49;99872.25;;;-3.17;100.00
2785;BME280;57944;48.722;9.316;2023-02-14T04:02:25;99868.09;;;-2.96;100.00
2785;BME280;57944;48.722;9.316;2023-02-14T04:04:58;99874.44;;;-3.09;100.00
2785;BME280;57944;48.722;9.316;2023-02-14T04:07:30;99876.53;;;-3.20;100.00
2785;BME280;57944;48.722;9.316;2023-02-14T04:10:00;99867.19;;;-3.37;100.00
2785;BME280;57944;48.722;9.316;2023-02-14T04:12:32;99870.81;;;-3.46;100.00
2785;BME280;57944;48.722;9.316;2023-02-14T04:15:06;99868.53;;;-3.52;100.00
2785;BME280;57944;48.722;9.316;2023-02-14T04:17:36;99870.50;;;-3.60;100.00
2785;BME280;57944;48.722;9.316;2023-02-14T04:20:31;99869.16;;;-3.69;100.00
2785;BME280;57944;48.722;9.316;2023-02-14T04:23:00;99874.84;;;-3.89;100.00
2785;BME280;57944;48.722;9.316;2023-02-14T04:25:30;99864.94;;;-3.90;100.00
2785;BME280;57944;48.722;9.316;2023-02-14T04:28:03;99872.47;;;-3.92;100.00
2785;BME280;57944;48.722;9.316;2023-02-14T04:30:34;99862.72;;;-3.98;100.00
2785;BME280;57944;48.722;9.316;2023-02-14T04:33:04;99865.25;;;-3.99;100.00
2785;BME280;57944;48.722;9.316;2023-02-14T04:35:34;99865.75;;;-3.90;100.00
2785;BME280;57944;48.722;9.316;2023-02-14T04:38:04;99864.78;;;-4.09;100.00
2785;BME280;57944;48.722;9.316;2023-02-14T04:40:35;99860.34;;;-3.77;100.00
2785;BME280;57944;48.722;9.316;2023-02-14T04:43:07;99860.22;;;-3.74;100.00
2785;BME280;57944;48.722;9.316;2023-02-14T04:45:37;99861.66;;;-3.67;100.00
2785;BME280;57944;48.722;9.316;2023-02-14T04:48:07;99865.22;;;-3.74;100.00
2785;BME280;57944;48.722;9.316;2023-02-14T04:50:37;99864.66;;;-3.83;100.00
2785;BME280;57944;48.722;9.316;2023-02-14T04:53:07;99864.22;;;-3.94;100.00
2785;BME280;57944;48.722;9.316;2023-02-14T04:55:37;99863.66;;;-4.00;100.00
2785;BME280;57944;48.722;9.316;2023-02-14T04:58:10;99860.53;;;-4.07;100.00
2785;BME280;57944;48.722;9.316;2023-02-14T05:00:40;99855.78;;;-4.13;100.00
2785;BME280;57944;48.722;9.316;2023-02-14T05:03:10;99856.31;;;-4.05;100.00
2785;BME280;57944;48.722;9.316;2023-02-14T05:05:40;99862.00;;;-4.01;100.00
2785;BME280;57944;48.722;9.316;2023-02-14T05:08:10;99863.91;;;-4.08;100.00
2785;BME280;57944;48.722;9.316;2023-02-14T05:10:41;99859.06;;;-4.13;100.00
2785;BME280;57944;48.722;9.316;2023-02-14T05:13:13;99866.94;;;-4.00;100.00
2785;BME280;57944;48.722;9.316;2023-02-14T05:15:44;99857.09;;;-4.03;100.00
2785;BME280;57944;48.722;9.316;2023-02-14T05:18:14;99862.78;;;-4.24;100.00
2785;BME280;57944;48.722;9.316;2023-02-14T05:20:44;99860.59;;;-4.09;100.00
2785;BME280;57944;48.722;9.316;2023-02-14T05:23:14;99860.50;;;-4.06;100.00
2785;BME280;57944;48.722;9.316;2023-02-14T05:25:47;99868.00;;;-4.07;100.00
2785;BME280;57944;48.722;9.316;2023-02-14T05:28:20;99863.25;;;-4.13;100.00
2785;BME280;57944;48.722;9.316;2023-02-14T05:30:50;99857.66;;;-4.20;100.00
2785;BME280;57944;48.722;9.316;2023-02-14T05:33:23;99856.13;;;-4.24;100.00
2785;BME280;57944;48.722;9.316;2023-02-14T05:35:53;99854.78;;;-4.33;100.00
2785;BME280;57944;48.722;9.316;2023-02-14T05:38:23;99856.41;;;-4.32;100.00
2785;BME280;57944;48.722;9.316;2023-02-14T05:40:53;99854.97;;;-4.39;100.00
2785;BME280;57944;48.722;9.316;2023-02-14T05:43:26;99854.63;;;-4.28;100.00
2785;BME280;57944;48.722;9.316;2023-02-14T05:45:57;99866.44;;;-4.10;100.00
2785;BME280;57944;48.722;9.316;2023-02-14T05:48:27;99871.16;;;-4.02;100.00
2785;BME280;57944;48.722;9.316;2023-02-14T05:51:03;99879.59;;;-4.06;100.00
2785;BME280;57944;48.722;9.316;2023-02-14T05:53:34;99872.94;;;-4.06;100.00
2785;BME280;57944;48.722;9.316;2023-02-14T05:56:05;99870.56;;;-4.09;100.00
2785;BME280;57944;48.722;9.316;2023-02-14T05:58:37;99870.06;;;-4.18;100.00
2785;BME280;57944;48.722;9.316;2023-02-14T06:01:07;99870.81;;;-4.16;100.00
2785;BME280;57944;48.722;9.316;2023-02-14T06:03:37;99868.22;;;-4.13;100.00
2785;BME280;57944;48.722;9.316;2023-02-14T06:06:07;99876.78;;;-4.20;100.00
2785;BME280;57944;48.722;9.316;2023-02-14T06:08:37;99874.75;;;-4.34;100.00
2785;BME280;57944;48.722;9.316;2023-02-14T06:11:07;99875.56;;;-4.34;100.00
2785;BME280;57944;48.722;9.316;2023-02-14T06:13:40;99881.44;;;-4.11;100.00
2785;BME280;57944;48.722;9.316;2023-02-14T06:16:10;99884.75;;;-4.36;100.00
2785;BME280;57944;48.722;9.316;2023-02-14T06:18:40;99885.81;;;-4.43;100.00
2785;BME280;57944;48.722;9.316;2023-02-14T06:21:10;99885.63;;;-4.12;100.00
2785;BME280;57944;48.722;9.316;2023-02-14T06:23:40;99888.41;;;-3.72;100.00
2785;BME280;57944;48.722;9.316;2023-02-14T06:26:10;99887.78;;;-3.55;100.00
2785;BME280;57944;48.722;9.316;2023-02-14T06:28:42;99883.16;;;-3.65;100.00
2785;BME280;57944;48.722;9.316;2023-02-14T06:31:16;99881.16;;;-3.78;100.00
2785;BME280;57944;48.722;9.316;2023-02-14T06:33:47;99882.53;;;-3.95;100.00
2785;BME280;57944;48.722;9.316;2023-02-14T06:36:17;99888.69;;;-4.05;100.00
2785;BME280;57944;48.722;9.316;2023-02-14T06:38:48;99884.59;;;-4.06;100.00
2785;BME280;57944;48.722;9.316;2023-02-14T06:41:18;99888.75;;;-4.07;100.00
2785;BME280;57944;48.722;9.316;2023-02-14T06:43:51;99888.34;;;-4.19;100.00
2785;BME280;57944;48.722;9.316;2023-02-14T06:46:21;99893.31;;;-4.19;100.00
2785;BME280;57944;48.722;9.316;2023-02-14T06:48:51;99898.00;;;-4.10;100.00
2785;BME280;57944;48.722;9.316;2023-02-14T06:51:21;99896.41;;;-4.13;100.00
2785;BME280;57944;48.722;9.316;2023-02-14T06:53:51;99893.81;;;-4.10;100.00
2785;BME280;57944;48.722;9.316;2023-02-14T06:56:21;99895.94;;;-3.99;100.00
2785;BME280;57944;48.722;9.316;2023-02-14T06:58:54;99894.13;;;-3.94;100.00
2785;BME280;57944;48.722;9.316;2023-02-14T07:01:24;99899.09;;;-3.94;100.00
2785;BME280;57944;48.722;9.316;2023-02-14T07:03:54;99898.38;;;-3.72;100.00
2785;BME280;57944;48.722;9.316;2023-02-14T07:06:24;99893.69;;;-3.58;100.00
2785;BME280;57944;48.722;9.316;2023-02-14T07:08:54;99899.56;;;-3.59;100.00
2785;BME280;57944;48.722;9.316;2023-02-14T07:11:24;99895.38;;;-3.58;100.00
2785;BME280;57944;48.722;9.316;2023-02-14T07:13:57;99886.09;;;-3.55;100.00
2785;BME280;57944;48.722;9.316;2023-02-14T07:16:27;99890.44;;;-3.37;100.00
2785;BME280;57944;48.722;9.316;2023-02-14T07:18:57;99887.63;;;-3.29;100.00
2785;BME280;57944;48.722;9.316;2023-02-14T07:21:27;99894.50;;;-3.12;100.00
2785;BME280;57944;48.722;9.316;2023-02-14T07:23:57;99898.66;;;-3.12;100.00
2785;BME280;57944;48.722;9.316;2023-02-14T07:26:27;99897.41;;;-3.01;100.00
2785;BME280;57944;48.722;9.316;2023-02-14T07:28:59;99898.16;;;-2.99;100.00
2785;BME280;57944;48.722;9.316;2023-02-14T07:31:29;99893.69;;;-2.90;100.00
2785;BME280;57944;48.722;9.316;2023-02-14T07:34:00;99896.66;;;-2.81;100.00
2785;BME280;57944;48.722;9.316;2023-02-14T07:36:30;99891.66;;;-2.60;100.00
2785;BME280;57944;48.722;9.316;2023-02-14T07:38:59;99887.22;;;-2.54;100.00
2785;BME280;57944;48.722;9.316;2023-02-14T07:41:29;99887.22;;;-2.54;100.00
2785;BME280;57944;48.722;9.316;2023-02-14T07:44:02;99884.25;;;-2.41;100.00
2785;BME280;57944;48.722;9.316;2023-02-14T07:46:32;99890.25;;;-2.25;100.00
2785;BME280;57944;48.722;9.316;2023-02-14T07:49:02;99888.97;;;-2.15;100.00
2785;BME280;57944;48.722;9.316;2023-02-14T07:51:32;99886.09;;;-2.06;100.00
2785;BME280;57944;48.722;9.316;2023-02-14T07:54:03;99890.44;;;-1.90;100.00
2785;BME280;57944;48.722;9.316;2023-02-14T07:56:33;99888.78;;;-1.71;100.00
2785;BME280;57944;48.722;9.316;2023-02-14T07:59:05;99882.63;;;-1.64;100.00
2785;BME280;57944;48.722;9.316;2023-02-14T08:01:35;99887.03;;;-1.50;100.00
2785;BME280;57944;48.722;9.316;2023-02-14T08:04:06;99892.56;;;-1.43;100.00
2785;BME280;57944;48.722;9.316;2023-02-14T08:06:36;99880.81;;;-1.41;100.00
2785;BME280;57944;48.722;9.316;2023-02-14T08:09:06;99877.69;;;-1.46;100.00
2785;BME280;57944;48.722;9.316;2023-02-14T08:11:36;99883.22;;;-1.40;100.00
2785;BME280;57944;48.722;9.316;2023-02-14T08:14:30;99887.75;;;-1.29;100.00
2785;BME280;57944;48.722;9.316;2023-02-14T08:17:00;99883.81;;;-1.16;100.00
2785;BME280;57944;48.722;9.316;2023-02-14T08:19:30;99874.41;;;-1.10;100.00
2785;BME280;57944;48.722;9.316;2023-02-14T08:22:00;99874.94;;;-1.04;100.00
2785;BME280;57944;48.722;9.316;2023-02-14T08:24:31;99878.44;;;-0.89;100.00
2785;BME280;57944;48.722;9.316;2023-02-14T08:27:01;99878.34;;;-0.87;100.00
2785;BME280;57944;48.722;9.316;2023-02-14T08:29:34;99883.72;;;-0.78;100.00
2785;BME280;57944;48.722;9.316;2023-02-14T08:32:04;99889.47;;;-0.76;100.00
2785;BME280;57944;48.722;9.316;2023-02-14T08:34:34;99886.09;;;-0.75;100.00
2785;BME280;57944;48.722;9.316;2023-02-14T08:37:04;99890.59;;;-0.64;100.00
2785;BME280;57944;48.722;9.316;2023-02-14T08:39:34;99890.19;;;-0.56;100.00
2785;BME280;57944;48.722;9.316;2023-02-14T08:42:05;99887.69;;;-0.56;100.00
2785;BME280;57944;48.722;9.316;2023-02-14T08:44:37;99883.56;;;-0.40;100.00
2785;BME280;57944;48.722;9.316;2023-02-14T08:47:07;99880.47;;;-0.28;100.00
2785;BME280;57944;48.722;9.316;2023-02-14T08:49:37;99877.56;;;-0.20;100.00
2785;BME280;57944;48.722;9.316;2023-02-14T08:52:08;99878.25;;;-0.16;100.00
2785;BME280;57944;48.722;9.316;2023-02-14T08:54:38;99864.34;;;-0.06;100.00
2785;BME280;57944;48.722;9.316;2023-02-14T08:57:08;99861.94;;;-0.08;100.00
2785;BME280;57944;48.722;9.316;2023-02-14T08:59:41;99866.63;;;-0.02;100.00
2785;BME280;57944;48.722;9.316;2023-02-14T09:02:12;99871.97;;;0.08;100.00
2785;BME280;57944;48.722;9.316;2023-02-14T09:04:42;99872.16;;;0.21;100.00
2785;BME280;57944;48.722;9.316;2023-02-14T09:07:13;99866.44;;;0.35;100.00
2785;BME280;57944;48.722;9.316;2023-02-14T09:09:43;99867.34;;;0.34;100.00
2785;BME280;57944;48.722;9.316;2023-02-14T09:12:13;99867.75;;;0.42;100.00
2785;BME280;57944;48.722;9.316;2023-02-14T09:14:46;99862.63;;;0.43;100.00
2785;BME280;57944;48.722;9.316;2023-02-14T09:17:16;99858.59;;;0.57;100.00
2785;BME280;57944;48.722;9.316;2023-02-14T09:19:47;99865.22;;;0.74;100.00
2785;BME280;57944;48.722;9.316;2023-02-14T09:22:18;99852.72;;;0.88;100.00
2785;BME280;57944;48.722;9.316;2023-02-14T09:24:49;99852.09;;;0.84;100.00
2785;BME280;57944;48.722;9.316;2023-02-14T09:27:19;99857.22;;;0.97;100.00
2785;BME280;57944;48.722;9.316;2023-02-14T09:29:51;99846.34;;;1.13;100.00
2785;BME280;57944;48.722;9.316;2023-02-14T09:32:22;99855.06;;;1.21;100.00
2785;BME280;57944;48.722;9.316;2023-02-14T09:34:52;99848.34;;;1.22;100.00
2785;BME280;57944;48.722;9.316;2023-02-14T09:37:22;99853.56;;;1.33;100.00
2785;BME280;57944;48.722;9.316;2023-02-14T09:40:07;99841.75;;;1.49;100.00
2785;BME280;57944;48.722;9.316;2023-02-14T09:42:52;99843.03;;;1.56;100.00
2785;BME280;57944;48.722;9.316;2023-02-14T09:45:31;99839.44;;;1.75;100.00
2785;BME280;57944;48.722;9.316;2023-02-14T09:48:06;99836.22;;;1.73;100.00
2785;BME280;57944;48.722;9.316;2023-02-14T09:50:45;99841.50;;;1.83;100.00
2785;BME280;57944;48.722;9.316;2023-02-14T09:53:23;99843.22;;;1.82;100.00
2785;BME280;57944;48.722;9.316;2023-02-14T09:56:05;99842.78;;;1.90;100.00
2785;BME280;57944;48.722;9.316;2023-02-14T09:58:49;99835.50;;;1.99;100.00
2785;BME280;57944;48.722;9.316;2023-02-14T10:01:28;99838.63;;;2.03;100.00
2785;BME280;57944;48.722;9.316;2023-02-14T10:04:15;99836.22;;;2.01;100.00
2785;BME280;57944;48.722;9.316;2023-02-14T10:06:54;99828.47;;;2.05;100.00
2785;BME280;57944;48.722;9.316;2023-02-14T10:09:55;99831.31;;;2.27;100.00
2785;BME280;57944;48.722;9.316;2023-02-14T10:12:37;99834.97;;;2.36;100.00
2785;BME280;57944;48.722;9.316;2023-02-14T10:15:17;99831.59;;;2.37;100.00
2785;BME280;57944;48.722;9.316;2023-02-14T10:17:54;99828.44;;;2.33;100.00
2785;BME280;57944;48.722;9.316;2023-02-14T10:20:30;99825.69;;;2.51;100.00
2785;BME280;57944;48.722;9.316;2023-02-14T10:23:05;99816.28;;;2.67;100.00
2785;BME280;57944;48.722;9.316;2023-02-14T10:25:48;99818.03;;;2.79;100.00
2785;BME280;57944;48.722;9.316;2023-02-14T10:28:29;99809.56;;;2.80;100.00
2785;BME280;57944;48.722;9.316;2023-02-14T10:31:19;99808.22;;;3.02;100.00
2785;BME280;57944;48.722;9.316;2023-02-14T10:33:57;99821.13;;;3.10;100.00
2785;BME280;57944;48.722;9.316;2023-02-14T10:36:55;99818.94;;;3.18;100.00
2785;BME280;57944;48.722;9.316;2023-02-14T10:42:44;99801.41;;;3.29;100.00
2785;BME280;57944;48.722;9.316;2023-02-14T10:45:27;99804.44;;;3.34;100.00
2785;BME280;57944;48.722;9.316;2023-02-14T10:48:12;99793.53;;;3.47;100.00
2785;BME280;57944;48.722;9.316;2023-02-14T10:50:57;99802.59;;;3.49;100.00
2785;BME280;57944;48.722;9.316;2023-02-14T10:53:40;99795.31;;;3.70;100.00
2785;BME280;57944;48.722;9.316;2023-02-14T10:56:20;99786.81;;;3.84;100.00
2785;BME280;57944;48.722;9.316;2023-02-14T10:58:55;99778.84;;;3.90;100.00
2785;BME280;57944;48.722;9.316;2023-02-14T11:01:27;99777.28;;;4.13;100.00
2785;BME280;57944;48.722;9.316;2023-02-14T11:04:02;99774.75;;;4.13;100.00
2785;BME280;57944;48.722;9.316;2023-02-14T11:06:37;99775.56;;;4.38;100.00
2785;BME280;57944;48.722;9.316;2023-02-14T11:09:09;99772.88;;;4.52;100.00
2785;BME280;57944;48.722;9.316;2023-02-14T11:11:45;99772.69;;;4.66;100.00
2785;BME280;57944;48.722;9.316;2023-02-14T11:14:26;99767.69;;;4.78;100.00
2785;BME280;57944;48.722;9.316;2023-02-14T11:16:59;99768.41;;;4.91;100.00
2785;BME280;57944;48.722;9.316;2023-02-14T11:19:57;99761.50;;;4.93;100.00
2785;BME280;57944;48.722;9.316;2023-02-14T11:22:32;99754.78;;;5.27;100.00
2785;BME280;57944;48.722;9.316;2023-02-14T11:25:05;99753.31;;;5.36;100.00
2785;BME280;57944;48.722;9.316;2023-02-14T11:27:36;99746.97;;;5.19;100.00
2785;BME280;57944;48.722;9.316;2023-02-14T11:30:19;99747.50;;;5.00;100.00
2785;BME280;57944;48.722;9.316;2023-02-14T11:32:51;99748.56;;;5.20;100.00
2785;BME280;57944;48.722;9.316;2023-02-14T11:35:26;99740.28;;;5.18;100.00
2785;BME280;57944;48.722;9.316;2023-02-14T11:38:06;99738.22;;;5.23;100.00
2785;BME280;57944;48.722;9.316;2023-02-14T11:40:54;99727.66;;;5.18;100.00
2785;BME280;57944;48.722;9.316;2023-02-14T11:43:32;99732.16;;;5.37;100.00
2785;BME280;57944;48.722;9.316;2023-02-14T11:46:32;99725.25;;;5.62;100.00
2785;BME280;57944;48.722;9.316;2023-02-14T11:49:28;99724.31;;;5.96;100.00
2785;BME280;57944;48.722;9.316;2023-02-14T11:52:07;99713.97;;;6.20;100.00
2785;BME280;57944;48.722;9.316;2023-02-14T11:54:41;99702.25;;;6.19;100.00
2785;BME280;57944;48.722;9.316;2023-02-14T11:57:22;99710.91;;;6.38;100.00
2785;BME280;57944;48.722;9.316;2023-02-14T11:59:57;99705.06;;;6.58;100.00
2785;BME280;57944;48.722;9.316;2023-02-14T12:02:40;99702.41;;;6.81;100.00
2785;BME280;57944;48.722;9.316;2023-02-14T12:05:19;99704.34;;;6.98;100.00
2785;BME280;57944;48.722;9.316;2023-02-14T12:07:52;99702.97;;;7.15;100.00
2785;BME280;57944;48.722;9.316;2023-02-14T12:10:28;99694.72;;;7.23;100.00
2785;BME280;57944;48.722;9.316;2023-02-14T12:13:01;99691.25;;;7.24;100.00
2785;BME280;57944;48.722;9.316;2023-02-14T12:15:35;99684.47;;;7.34;100.00
2785;BME280;57944;48.722;9.316;2023-02-14T12:18:45;99684.50;;;7.44;100.00
2785;BME280;57944;48.722;9.316;2023-02-14T12:21:41;99684.00;;;7.50;100.00
2785;BME280;57944;48.722;9.316;2023-02-14T12:24:22;99670.63;;;7.48;100.00
2785;BME280;57944;48.722;9.316;2023-02-14T12:27:09;99670.84;;;7.35;100.00
2785;BME280;57944;48.722;9.316;2023-02-14T12:29:47;99667.72;;;7.52;100.00
2785;BME280;57944;48.722;9.316;2023-02-14T12:32:23;99668.63;;;7.42;100.00
2785;BME280;57944;48.722;9.316;2023-02-14T12:35:01;99663.06;;;7.67;100.00
2785;BME280;57944;48.722;9.316;2023-02-14T12:37:51;99658.41;;;7.72;100.00
2785;BME280;57944;48.722;9.316;2023-02-14T12:40:42;99659.47;;;7.70;100.00
2785;BME280;57944;48.722;9.316;2023-02-14T12:43:45;99653.59;;;7.89;100.00
2785;BME280;57944;48.722;9.316;2023-02-14T12:46:59;99653.88;;;8.15;100.00
2785;BME280;57944;48.722;9.316;2023-02-14T12:50:02;99651.06;;;8.27;100.00
2785;BME280;57944;48.722;9.316;2023-02-14T12:53:10;99637.81;;;8.34;100.00
2785;BME280;57944;48.722;9.316;2023-02-14T12:55:59;99636.72;;;8.46;100.00
2785;BME280;57944;48.722;9.316;2023-02-14T12:58:48;99632.97;;;8.60;100.00
2785;BME280;57944;48.722;9.316;2023-02-14T13:05:00;99624.53;;;8.59;100.00
2785;BME280;57944;48.722;9.316;2023-02-14T13:07:55;99619.00;;;8.73;100.00
2785;BME280;57944;48.722;9.316;2023-02-14T13:10:46;99615.91;;;8.80;100.00
2785;BME280;57944;48.722;9.316;2023-02-14T13:13:31;99614.69;;;8.84;100.00
2785;BME280;57944;48.722;9.316;2023-02-14T13:16:17;99609.59;;;8.84;100.00
2785;BME280;57944;48.722;9.316;2023-02-14T13:18:59;99603.44;;;8.86;100.00
2785;BME280;57944;48.722;9.316;2023-02-14T13:21:36;99601.31;;;8.82;100.00
2785;BME280;57944;48.722;9.316;2023-02-14T13:24:16;99590.44;;;8.89;100.00
2785;BME280;57944;48.722;9.316;2023-02-14T13:26:53;99592.94;;;8.99;100.00
2785;BME280;57944;48.722;9.316;2023-02-14T13:29:32;99588.59;;;9.09;100.00
2785;BME280;57944;48.722;9.316;2023-02-14T13:32:13;99586.72;;;9.11;100.00
2785;BME280;57944;48.722;9.316;2023-02-14T13:34:47;99580.78;;;9.21;100.00
2785;BME280;57944;48.722;9.316;2023-02-14T13:37:22;99579.78;;;9.31;100.00
2785;BME280;57944;48.722;9.316;2023-02-14T13:39:57;99573.16;;;9.38;100.00
2785;BME280;57944;48.722;9.316;2023-02-14T13:42:55;99574.38;;;9.16;100.00
2785;BME280;57944;48.722;9.316;2023-02-14T13:45:54;99575.38;;;9.24;100.00
2785;BME280;57944;48.722;9.316;2023-02-14T13:48:28;99577.97;;;8.96;100.00
2785;BME280;57944;48.722;9.316;2023-02-14T13:51:00;99575.31;;;8.88;100.00
2785;BME280;57944;48.722;9.316;2023-02-14T13:53:39;99568.25;;;8.82;100.00
2785;BME280;57944;48.722;9.316;2023-02-14T13:56:32;99569.50;;;8.78;100.00
2785;BME280;57944;48.722;9.316;2023-02-14T13:59:05;99571.84;;;8.89;100.00
2785;BME280;57944;48.722;9.316;2023-02-14T14:01:38;99570.13;;;8.80;100.00
2785;BME280;57944;48.722;9.316;2023-02-14T14:04:36;99560.91;;;8.79;100.00
2785;BME280;57944;48.722;9.316;2023-02-14T14:07:22;99567.69;;;8.88;100.00
2785;BME280;57944;48.722;9.316;2023-02-14T14:10:04;99565.69;;;8.91;100.00
2785;BME280;57944;48.722;9.316;2023-02-14T14:12:43;99555.50;;;8.91;100.00
2785;BME280;57944;48.722;9.316;2023-02-14T14:15:23;99560.53;;;8.73;100.00
2785;BME280;57944;48.722;9.316;2023-02-14T14:18:30;99564.03;;;8.72;100.00